Time;durP1;ratioP1;P1;durP2;ratioP2;P2;SDS_P1;SDS_P2;PMS_P1;PMS_P2;Temp;Humidity;BMP_temperature;BMP_pressure;BME280_temperature;BME280_humidity;BME280_pressure;Samples;Min_cycle;Max_cycle;Signal;HPM_P1;HPM_P2
2022/05/08 00:02:16;;;;;;;6.53;2.50;;;9.10;99.90;;;;;;5041607;28;20052;-65
2022/05/08 00:04:41;;;;;;;5.65;1.77;;;9.10;99.90;;;;;;5030985;28;20040;-64
2022/05/08 00:07:07;;;;;;;6.00;1.80;;;9.10;99.90;;;;;;5033518;28;20075;-64
2022/05/08 00:09:32;;;;;;;9.23;1.80;;;9.10;99.90;;;;;;5035419;28;20078;-65
2022/05/08 00:11:58;;;;;;;4.67;1.60;;;9.00;99.90;;;;;;5030144;28;20462;-65
2022/05/08 00:14:24;;;;;;;4.57;1.70;;;9.00;99.90;;;;;;5045351;28;20033;-64
2022/05/08 00:16:49;;;;;;;5.27;1.53;;;9.00;99.90;;;;;;5022863;28;20059;-65
2022/05/08 00:19:15;;;;;;;7.27;1.73;;;9.10;99.90;;;;;;5044189;28;20287;-65
2022/05/08 00:21:41;;;;;;;9.55;1.85;;;9.00;99.90;;;;;;5045891;28;20036;-64
2022/05/08 00:24:07;;;;;;;7.53;1.73;;;9.00;99.90;;;;;;5031639;28;20048;-64
2022/05/08 00:26:32;;;;;;;6.20;1.58;;;9.00;99.90;;;;;;5026688;28;20052;-64
2022/05/08 00:28:58;;;;;;;5.37;1.90;;;9.00;99.90;;;;;;5043189;28;20099;-65
2022/05/08 00:31:24;;;;;;;6.30;1.93;;;8.90;99.90;;;;;;5047463;28;20302;-64
2022/05/08 00:33:50;;;;;;;4.70;1.67;;;8.90;99.90;;;;;;5047545;28;20036;-64
2022/05/08 00:36:16;;;;;;;5.35;1.60;;;8.90;99.90;;;;;;5108661;22;20054;-66
2022/05/08 00:38:42;;;;;;;6.78;2.22;;;8.90;99.90;;;;;;5026722;28;20044;-66
2022/05/08 00:41:08;;;;;;;3.57;1.37;;;8.90;99.90;;;;;;5022416;28;20043;-65
2022/05/08 00:43:35;;;;;;;;;;;8.90;99.90;;;;;;5023845;28;20025;-65
2022/05/08 00:46:04;;;;;;;8.15;2.03;;;8.90;99.90;;;;;;5028437;28;20395;-71
2022/05/08 00:48:31;;;;;;;9.23;2.10;;;8.90;99.90;;;;;;5025300;28;21140;-67
2022/05/08 00:50:57;;;;;;;7.68;1.88;;;8.80;99.90;;;;;;5006802;28;20041;-67
2022/05/08 00:53:25;;;;;;;11.45;3.60;;;8.90;99.90;;;;;;5008730;28;20228;-67
2022/05/08 00:55:52;;;;;;;9.57;2.60;;;8.80;99.90;;;;;;5033653;28;20355;-67
2022/05/08 00:58:19;;;;;;;7.40;2.33;;;8.80;99.90;;;;;;5017176;28;20033;-67
2022/05/08 01:00:45;;;;;;;7.25;1.75;;;8.80;99.90;;;;;;5022861;28;20037;-67
2022/05/08 01:03:11;;;;;;;8.55;2.05;;;8.80;99.90;;;;;;5028065;28;20517;-67
2022/05/08 01:05:43;;;;;;;6.82;2.08;;;8.80;99.90;;;;;;5032272;28;20045;-67
2022/05/08 01:08:09;;;;;;;9.63;2.25;;;8.90;99.90;;;;;;5014857;28;20124;-67
2022/05/08 01:10:36;;;;;;;;;;;8.80;99.90;;;;;;5010707;28;20045;-67
2022/05/08 01:13:02;;;;;;;7.57;1.70;;;8.80;99.90;;;;;;4991101;28;20031;-67
2022/05/08 01:15:28;;;;;;;10.93;1.92;;;8.80;99.90;;;;;;5023967;28;20467;-67
2022/05/08 01:17:53;;;;;;;8.03;1.70;;;8.70;99.90;;;;;;5024569;28;20098;-67
2022/05/08 01:20:19;;;;;;;4.50;1.47;;;8.70;99.90;;;;;;5024494;28;20072;-67
2022/05/08 01:22:45;;;;;;;5.83;1.97;;;8.80;99.90;;;;;;5010992;28;20610;-67
2022/05/08 01:25:10;;;;;;;6.97;2.33;;;8.70;99.90;;;;;;5012751;28;20295;-67
2022/05/08 01:27:36;;;;;;;3.37;1.27;;;8.70;99.90;;;;;;5029380;28;20771;-67
2022/05/08 01:30:03;;;;;;;5.82;1.52;;;8.70;99.90;;;;;;5034145;28;20104;-67
2022/05/08 01:32:28;;;;;;;6.45;1.85;;;8.70;99.90;;;;;;5026950;28;20061;-67
2022/05/08 01:34:54;;;;;;;5.83;1.40;;;8.70;99.90;;;;;;5004622;28;20060;-67
2022/05/08 01:37:20;;;;;;;6.23;2.40;;;8.70;99.90;;;;;;5018925;28;20033;-67
2022/05/08 01:39:45;;;;;;;5.13;1.80;;;8.60;99.90;;;;;;5021966;28;20045;-67
2022/05/08 01:42:11;;;;;;;7.50;2.27;;;8.60;99.90;;;;;;5018991;28;20100;-67
2022/05/08 01:44:36;;;;;;;6.90;1.90;;;8.60;99.90;;;;;;5019083;28;20387;-67
2022/05/08 01:49:46;;;;;;;3.30;1.40;;;8.60;99.90;;;;;;5025925;28;20045;-67
2022/05/08 01:52:12;;;;;;;6.93;1.90;;;8.60;99.90;;;;;;5027783;28;20584;-67
2022/05/08 01:54:37;;;;;;;11.43;2.73;;;8.50;99.90;;;;;;5029253;28;20025;-67
2022/05/08 01:57:03;;;;;;;5.47;1.90;;;8.50;99.90;;;;;;5024532;28;20393;-67
2022/05/08 01:59:28;;;;;;;3.77;1.50;;;8.50;99.90;;;;;;5029477;28;20514;-67
2022/05/08 02:01:54;;;;;;;7.83;2.37;;;8.50;99.90;;;;;;5023821;28;20287;-67
2022/05/08 02:04:20;;;;;;;4.43;1.60;;;8.40;99.90;;;;;;5032106;28;20198;-67
2022/05/08 02:06:45;;;;;;;5.07;1.73;;;8.40;99.90;;;;;;5031897;28;20405;-67
2022/05/08 02:09:11;;;;;;;2.93;0.90;;;8.40;99.90;;;;;;5004384;28;20498;-67
2022/05/08 02:11:37;;;;;;;4.63;1.48;;;8.40;99.90;;;;;;5027486;28;20065;-67
2022/05/08 02:14:04;;;;;;;7.70;2.10;;;8.40;99.90;;;;;;5034540;28;20053;-67
2022/05/08 02:16:30;;;;;;;5.53;2.05;;;8.30;99.90;;;;;;5025869;28;20034;-67
2022/05/08 02:18:55;;;;;;;5.33;1.33;;;8.30;99.90;;;;;;5024827;28;20489;-67
2022/05/08 02:21:21;;;;;;;7.20;1.63;;;8.30;99.90;;;;;;5004750;28;20135;-67
2022/05/08 02:23:47;;;;;;;3.55;1.30;;;8.30;99.90;;;;;;5007413;28;20048;-67
2022/05/08 02:26:13;;;;;;;7.03;1.50;;;8.30;99.90;;;;;;5020112;28;20095;-67
2022/05/08 02:28:39;;;;;;;2.80;1.30;;;8.20;99.90;;;;;;5031196;28;20069;-67
2022/05/08 02:31:04;;;;;;;5.00;1.70;;;8.20;99.90;;;;;;5027854;28;20045;-67
2022/05/08 02:33:30;;;;;;;8.47;1.57;;;8.20;99.90;;;;;;5028319;28;20046;-67
2022/05/08 02:35:56;;;;;;;6.47;1.37;;;8.20;99.90;;;;;;5027134;28;20041;-67
2022/05/08 02:38:21;;;;;;;5.50;1.40;;;8.20;99.90;;;;;;5025655;28;20041;-67
2022/05/08 02:40:47;;;;;;;6.83;1.77;;;8.10;99.90;;;;;;5023736;28;20033;-67
2022/05/08 02:43:14;;;;;;;4.80;1.50;;;8.10;99.90;;;;;;5029343;28;20686;-67
2022/05/08 02:45:40;;;;;;;5.75;1.40;;;8.10;99.90;;;;;;5006662;28;20118;-67
2022/05/08 02:48:08;;;;;;;6.70;1.70;;;8.10;99.90;;;;;;5028499;28;20041;-67
2022/05/08 02:50:33;;;;;;;7.15;1.25;;;8.10;99.90;;;;;;5016308;28;20124;-67
2022/05/08 02:52:59;;;;;;;3.70;1.20;;;8.10;99.90;;;;;;5012452;28;20117;-67
2022/05/08 03:00:53;;;;;;;6.20;1.52;;;8.10;99.90;;;;;;5028532;28;20144;-67
2022/05/08 03:03:18;;;;;;;3.83;1.17;;;8.10;99.90;;;;;;5029307;28;20135;-66
2022/05/08 03:05:47;;;;;;;5.07;1.23;;;8.10;99.90;;;;;;5002089;28;20478;-67
2022/05/08 03:08:17;;;;;;;5.40;1.45;;;8.00;99.90;;;;;;5030855;28;20065;-67
2022/05/08 03:13:29;;;;;;;4.38;1.48;;;8.10;99.90;;;;;;5025339;28;20398;-67
2022/05/08 03:15:55;;;;;;;;;;;8.00;99.90;;;;;;5018048;28;20128;-67
2022/05/08 03:18:21;;;;;;;3.65;1.25;;;8.00;99.90;;;;;;5016540;28;20638;-67
2022/05/08 03:20:47;;;;;;;;;;;8.00;99.90;;;;;;5018887;28;20126;-66
2022/05/08 03:23:16;;;;;;;5.40;1.40;;;8.00;99.90;;;;;;5033116;28;19921;-67
2022/05/08 03:25:42;;;;;;;4.10;1.50;;;8.00;99.90;;;;;;5021122;28;20070;-67
2022/05/08 03:28:08;;;;;;;;;;;8.00;99.90;;;;;;5013698;28;20045;-67
2022/05/08 03:30:33;;;;;;;3.45;1.42;;;8.00;99.90;;;;;;5025386;28;19923;-67
2022/05/08 03:32:59;;;;;;;4.33;1.40;;;8.00;99.90;;;;;;5026015;28;20037;-67
2022/05/08 03:35:25;;;;;;;4.00;1.48;;;8.00;99.90;;;;;;5026889;28;20040;-67
2022/05/08 03:37:50;;;;;;;4.57;1.00;;;8.00;99.90;;;;;;5032172;28;20044;-67
2022/05/08 03:40:16;;;;;;;2.13;1.17;;;7.90;99.90;;;;;;5026514;28;20033;-67
2022/05/08 03:42:42;;;;;;;4.47;0.97;;;8.00;99.90;;;;;;5022935;28;20033;-67
2022/05/08 03:45:08;;;;;;;6.75;0.93;;;7.90;99.90;;;;;;5020252;28;20044;-67
2022/05/08 03:47:34;;;;;;;3.50;0.95;;;7.90;99.90;;;;;;5027276;28;20663;-67
2022/05/08 03:50:00;;;;;;;4.63;1.40;;;7.90;99.90;;;;;;5027720;28;20034;-66
2022/05/08 03:52:25;;;;;;;4.00;1.00;;;7.90;99.90;;;;;;5024629;28;20485;-66
2022/05/08 03:54:51;;;;;;;3.40;0.80;;;7.90;99.90;;;;;;5023379;28;20156;-66
2022/05/08 03:57:16;;;;;;;4.57;1.03;;;7.90;99.90;;;;;;5025591;28;20048;-66
2022/05/08 03:59:42;;;;;;;4.60;1.10;;;7.90;99.90;;;;;;5025953;28;20033;-66
2022/05/08 04:02:07;;;;;;;2.97;1.00;;;7.90;99.90;;;;;;5030912;28;20044;-67
2022/05/08 04:04:33;;;;;;;3.40;0.83;;;7.90;99.90;;;;;;5023275;28;20033;-67
2022/05/08 04:06:59;;;;;;;3.33;0.98;;;7.90;99.90;;;;;;5019518;28;20103;-67
2022/05/08 04:09:25;;;;;;;2.10;0.80;;;7.90;99.90;;;;;;5007084;28;20068;-67
2022/05/08 04:11:50;;;;;;;5.83;0.93;;;7.90;99.90;;;;;;5001256;28;20046;-70
2022/05/08 04:14:16;;;;;;;2.93;1.10;;;7.90;99.90;;;;;;5001864;28;20048;-68
2022/05/08 04:16:41;;;;;;;4.20;0.90;;;7.90;99.90;;;;;;5022809;28;20108;-69
2022/05/08 04:19:07;;;;;;;5.60;1.20;;;7.90;99.90;;;;;;5007934;28;20111;-67
2022/05/08 04:21:33;;;;;;;3.63;0.90;;;7.90;99.90;;;;;;5018511;28;20369;-67
2022/05/08 04:24:16;;;;;;;6.50;1.43;;;7.90;99.90;;;;;;5003221;28;20301;-67
2022/05/08 04:26:42;;;;;;;1.65;1.17;;;7.90;99.90;;;;;;5023275;28;20109;-67
2022/05/08 04:29:08;;;;;;;2.73;0.90;;;7.90;99.90;;;;;;5004439;28;20532;-67
2022/05/08 04:31:33;;;;;;;5.13;1.13;;;8.00;99.90;;;;;;5024268;28;20385;-67
2022/05/08 04:34:00;;;;;;;2.67;0.80;;;7.90;99.90;;;;;;5023677;28;20037;-67
2022/05/08 04:36:26;;;;;;;4.63;1.00;;;8.00;99.90;;;;;;5014179;28;20124;-67
2022/05/08 04:38:52;;;;;;;3.72;0.95;;;8.00;99.90;;;;;;5011035;28;20102;-67
2022/05/08 04:41:18;;;;;;;3.83;0.80;;;8.00;99.90;;;;;;5012537;28;20124;-67
2022/05/08 04:43:44;;;;;;;1.80;0.87;;;8.00;99.90;;;;;;5025691;28;20033;-66
2022/05/08 04:46:12;;;;;;;2.10;0.73;;;8.00;99.90;;;;;;5018009;28;20029;-67
2022/05/08 04:48:38;;;;;;;8.32;1.20;;;8.00;99.90;;;;;;5007329;28;20554;-66
2022/05/08 04:51:04;;;;;;;7.95;1.85;;;8.10;99.90;;;;;;4985405;28;20124;-71
2022/05/08 04:53:33;;;;;;;1.40;0.73;;;8.10;99.90;;;;;;5025213;28;20159;-68
2022/05/08 04:55:59;;;;;;;4.50;0.98;;;8.10;99.90;;;;;;5014551;28;20119;-68
2022/05/08 04:58:29;;;;;;;5.05;0.88;;;8.10;99.90;;;;;;5023103;28;20069;-70
2022/05/08 05:00:57;;;;;;;1.40;0.85;;;8.20;99.90;;;;;;5004739;28;20141;-71
2022/05/08 05:03:24;;;;;;;3.22;0.68;;;8.30;99.90;;;;;;5005660;28;20479;-68
2022/05/08 05:05:50;;;;;;;2.38;1.02;;;8.30;99.90;;;;;;5024817;28;20592;-66
2022/05/08 05:08:15;;;;;;;1.87;0.87;;;8.40;99.90;;;;;;5014025;28;20140;-66
2022/05/08 05:10:41;;;;;;;3.63;0.65;;;8.40;99.90;;;;;;4988970;28;20435;-66
2022/05/08 05:13:07;;;;;;;3.50;0.97;;;8.40;99.90;;;;;;5020002;28;20034;-66
2022/05/08 05:15:32;;;;;;;2.33;0.90;;;8.40;99.90;;;;;;5024761;28;20040;-67
2022/05/08 05:18:01;;;;;;;5.10;1.13;;;8.50;99.90;;;;;;5007678;28;20041;-66
2022/05/08 05:20:27;;;;;;;3.42;1.05;;;8.50;99.90;;;;;;5001972;28;20049;-66
2022/05/08 05:22:52;;;;;;;9.68;1.10;;;8.50;99.90;;;;;;5025498;28;20091;-66
2022/05/08 05:25:18;;;;;;;5.50;1.30;;;8.50;99.90;;;;;;5024929;28;20045;-66
2022/05/08 05:27:45;;;;;;;2.05;0.88;;;8.60;99.90;;;;;;5018691;28;20590;-66
2022/05/08 05:30:11;;;;;;;3.00;0.98;;;8.60;99.90;;;;;;5023713;28;20045;-66
2022/05/08 05:32:38;;;;;;;3.17;0.75;;;8.60;99.90;;;;;;5031514;28;20068;-67
2022/05/08 05:35:04;;;;;;;4.32;1.38;;;8.70;99.90;;;;;;5032413;28;20045;-70
2022/05/08 05:37:29;;;;;;;4.22;1.17;;;8.70;99.90;;;;;;4994348;28;20072;-67
2022/05/08 05:39:55;;;;;;;2.70;1.33;;;8.70;99.90;;;;;;5023900;28;20040;-67
2022/05/08 05:42:21;;;;;;;6.70;1.43;;;8.80;99.90;;;;;;5017247;28;20052;-67
2022/05/08 05:44:46;;;;;;;2.47;0.67;;;8.90;99.90;;;;;;5019585;28;20044;-67
2022/05/08 05:49:56;;;;;;;2.72;1.02;;;8.90;99.90;;;;;;5020727;28;20494;-67
2022/05/08 05:52:22;;;;;;;3.37;1.30;;;9.00;99.90;;;;;;5032934;28;20046;-67
2022/05/08 05:54:47;;;;;;;2.40;0.93;;;9.00;99.90;;;;;;5022245;28;20149;-67
2022/05/08 05:57:13;;;;;;;1.57;0.73;;;9.10;99.90;;;;;;5025321;28;20319;-67
2022/05/08 05:59:38;;;;;;;2.00;0.87;;;9.20;99.90;;;;;;5031728;28;20077;-67
2022/05/08 06:02:04;;;;;;;3.50;1.13;;;9.30;99.90;;;;;;5023974;28;20048;-67
2022/05/08 06:04:30;;;;;;;2.73;0.90;;;9.30;99.90;;;;;;5008920;28;20048;-67
2022/05/08 06:06:55;;;;;;;3.07;0.60;;;9.40;99.90;;;;;;5024114;28;20140;-67
2022/05/08 06:09:21;;;;;;;5.43;1.50;;;9.50;99.90;;;;;;4997115;28;20048;-67
2022/05/08 06:11:46;;;;;;;4.33;1.50;;;9.50;99.90;;;;;;5022377;28;20041;-67
2022/05/08 06:14:12;;;;;;;3.33;0.87;;;9.60;99.90;;;;;;5023469;28;20099;-67
2022/05/08 06:16:38;;;;;;;4.90;1.10;;;9.60;99.90;;;;;;5024534;28;20045;-67
2022/05/08 06:19:04;;;;;;;3.60;1.00;;;9.70;99.90;;;;;;5028805;28;20059;-67
2022/05/08 06:21:31;;;;;;;1.98;0.90;;;9.70;99.90;;;;;;5020090;28;20308;-67
2022/05/08 06:23:57;;;;;;;3.83;1.00;;;9.90;99.90;;;;;;5028210;28;20124;-67
2022/05/08 06:26:23;;;;;;;3.27;1.00;;;9.90;99.90;;;;;;5027757;28;20556;-67
2022/05/08 06:28:48;;;;;;;2.07;0.87;;;10.00;99.90;;;;;;5006117;28;20080;-67
2022/05/08 06:31:17;;;;;;;3.80;1.03;;;10.20;99.90;;;;;;5028836;28;20034;-67
2022/05/08 06:33:43;;;;;;;5.07;0.90;;;10.30;99.90;;;;;;5012775;28;20037;-67
2022/05/08 06:36:10;;;;;;;1.60;0.90;;;10.40;99.90;;;;;;5024906;28;20051;-69
2022/05/08 06:38:36;;;;;;;3.33;0.68;;;10.50;99.90;;;;;;5011426;28;20065;-74
2022/05/08 06:41:01;;;;;;;3.70;1.13;;;10.50;99.90;;;;;;5008304;28;20067;-66
2022/05/08 06:43:27;;;;;;;2.27;0.80;;;10.60;99.90;;;;;;5019594;28;20073;-67
2022/05/08 06:45:52;;;;;;;3.07;0.97;;;10.70;99.90;;;;;;5021737;28;20040;-67
2022/05/08 06:48:18;;;;;;;3.50;0.77;;;10.70;99.90;;;;;;5026305;28;20036;-67
2022/05/08 06:50:43;;;;;;;2.33;0.70;;;10.70;99.90;;;;;;5022898;28;20292;-67
2022/05/08 06:53:09;;;;;;;3.23;0.90;;;10.80;99.90;;;;;;5028741;28;20103;-67
2022/05/08 06:55:35;;;;;;;2.35;1.15;;;10.80;99.90;;;;;;5009158;28;20026;-67
2022/05/08 06:58:02;;;;;;;6.28;2.08;;;10.90;99.90;;;;;;5024809;28;20045;-67
2022/05/08 07:03:11;;;;;;;3.70;1.00;;;10.90;99.90;;;;;;5030610;28;19929;-67
2022/05/08 07:05:42;;;;;;;1.30;0.70;;;11.00;99.90;;;;;;5024472;28;20053;-67
2022/05/08 07:08:08;;;;;;;4.60;1.40;;;11.00;99.90;;;;;;4996185;28;20045;-67
2022/05/08 07:10:34;;;;;;;4.33;1.00;;;11.00;99.90;;;;;;5014800;28;20037;-67
2022/05/08 07:12:59;;;;;;;5.70;0.80;;;11.10;99.90;;;;;;5001390;28;20308;-67
2022/05/08 07:15:25;;;;;;;2.87;0.83;;;11.20;99.90;;;;;;5023388;28;20112;-67
2022/05/08 07:17:50;;;;;;;2.40;0.70;;;11.20;99.90;;;;;;5019676;28;20047;-67
2022/05/08 07:20:16;;;;;;;1.43;0.47;;;11.30;99.90;;;;;;5015253;28;20307;-67
2022/05/08 07:22:42;;;;;;;2.00;0.60;;;11.30;99.90;;;;;;5010754;28;20396;-67
2022/05/08 07:25:08;;;;;;;5.70;1.00;;;11.40;99.90;;;;;;5026388;28;20033;-67
2022/05/08 07:27:36;;;;;;;5.50;1.40;;;11.40;99.90;;;;;;5021740;28;20502;-67
2022/05/08 07:30:04;;;;;;;4.05;0.98;;;11.40;99.90;;;;;;5021481;28;20605;-67
2022/05/08 07:32:29;;;;;;;2.97;0.63;;;11.40;99.90;;;;;;5005462;28;20518;-67
2022/05/08 07:37:50;;;;;;;5.65;1.27;;;11.40;99.90;;;;;;4939025;28;20043;-67
2022/05/08 07:40:15;;;;;;;4.07;1.23;;;11.50;99.90;;;;;;5017352;28;20069;-67
2022/05/08 07:42:41;;;;;;;2.30;0.70;;;11.60;99.90;;;;;;5016346;28;20520;-67
2022/05/08 07:45:07;;;;;;;4.77;0.83;;;11.70;99.90;;;;;;5012500;28;20441;-67
2022/05/08 07:47:32;;;;;;;2.00;0.77;;;11.80;99.90;;;;;;5025475;28;20033;-67
2022/05/08 07:49:58;;;;;;;1.23;0.80;;;11.90;99.90;;;;;;5023350;28;20076;-67
2022/05/08 07:52:24;;;;;;;1.63;0.50;;;12.00;99.90;;;;;;5019781;28;20406;-67
2022/05/08 07:54:50;;;;;;;3.25;0.82;;;12.00;99.90;;;;;;5006346;28;20539;-67
2022/05/08 07:57:15;;;;;;;2.67;0.68;;;12.00;99.90;;;;;;5006291;28;20450;-67
2022/05/08 07:59:41;;;;;;;3.37;0.80;;;11.90;99.90;;;;;;5027641;28;20048;-67
2022/05/08 08:02:07;;;;;;;3.30;1.00;;;11.80;99.90;;;;;;5022947;28;20296;-67
2022/05/08 08:04:34;;;;;;;;;;;11.80;99.90;;;;;;5019945;28;20045;-67
2022/05/08 08:07:01;;;;;;;2.50;0.80;;;11.70;99.90;;;;;;5014388;28;19921;-67
2022/05/08 08:09:26;;;;;;;2.28;0.80;;;11.70;99.90;;;;;;5017282;28;20045;-67
2022/05/08 08:11:53;;;;;;;7.30;1.13;;;11.70;99.90;;;;;;5017539;28;20041;-67
2022/05/08 08:14:20;;;;;;;3.80;1.05;;;11.60;99.90;;;;;;5025142;28;20128;-67
2022/05/08 08:16:46;;;;;;;;;;;11.60;99.90;;;;;;5024333;28;20603;-66
2022/05/08 08:19:11;;;;;;;4.13;0.98;;;11.60;99.90;;;;;;5024790;28;19944;-67
2022/05/08 08:21:37;;;;;;;2.80;0.97;;;11.70;99.90;;;;;;4999869;28;20106;-66
2022/05/08 08:24:03;;;;;;;2.73;0.93;;;11.70;99.90;;;;;;5024920;28;20028;-67
2022/05/08 08:26:28;;;;;;;5.82;0.93;;;11.70;99.90;;;;;;5003331;28;20048;-66
2022/05/08 08:28:54;;;;;;;2.63;0.73;;;11.80;99.90;;;;;;5026159;28;20705;-66
2022/05/08 08:31:19;;;;;;;2.83;0.83;;;11.90;99.90;;;;;;5018576;28;20810;-66
2022/05/08 08:33:45;;;;;;;5.00;1.20;;;12.00;99.90;;;;;;5023281;28;20168;-66
2022/05/08 08:36:11;;;;;;;2.03;0.95;;;12.10;99.90;;;;;;5017210;28;20057;-66
2022/05/08 08:38:38;;;;;;;3.67;0.85;;;12.20;99.90;;;;;;4999875;28;20149;-66
2022/05/08 08:41:04;;;;;;;;;;;12.20;99.90;;;;;;4999096;28;20065;-66
2022/05/08 08:49:12;;;;;;;4.13;0.80;;;12.60;99.90;;;;;;5027764;28;20350;-66
2022/05/08 08:51:39;;;;;;;3.08;0.70;;;12.70;99.90;;;;;;5021018;28;20034;-66
2022/05/08 08:54:04;;;;;;;1.55;0.85;;;12.70;99.90;;;;;;5023725;28;20038;-67
2022/05/08 08:56:31;;;;;;;6.27;0.83;;;12.80;99.60;;;;;;5018667;28;20040;-66
2022/05/08 08:58:56;;;;;;;4.50;1.00;;;12.70;99.90;;;;;;5025520;28;20224;-67
2022/05/08 09:01:22;;;;;;;2.27;1.03;;;12.70;99.90;;;;;;5019659;28;20445;-67
2022/05/08 09:03:48;;;;;;;4.85;0.75;;;12.70;99.90;;;;;;5011387;28;20113;-66
2022/05/08 09:06:13;;;;;;;4.03;1.87;;;12.70;99.90;;;;;;5029323;28;20056;-66
2022/05/08 09:08:39;;;;;;;3.20;1.00;;;12.70;99.90;;;;;;5030840;28;20030;-67
2022/05/08 09:11:05;;;;;;;2.07;1.10;;;12.70;99.90;;;;;;5025255;28;20502;-67
2022/05/08 09:13:33;;;;;;;3.30;0.80;;;12.70;99.90;;;;;;5011014;28;20152;-67
2022/05/08 09:16:07;;;;;;;5.00;1.00;;;12.80;99.90;;;;;;5024899;28;20128;-67
2022/05/08 09:18:44;;;;;;;2.75;0.80;;;12.80;97.50;;;;;;5017880;28;20398;-67
2022/05/08 09:24:12;;;;;;;3.58;1.23;;;12.70;98.50;;;;;;5014616;28;20080;-67
2022/05/08 09:26:38;;;;;;;4.60;0.90;;;12.70;98.20;;;;;;5008120;28;20131;-67
2022/05/08 09:29:04;;;;;;;3.80;1.13;;;12.80;98.50;;;;;;5014325;28;20195;-67
2022/05/08 09:31:40;;;;;;;;;;;12.90;98.50;;;;;;5031173;28;20310;-67
2022/05/08 09:34:06;;;;;;;3.15;1.20;;;13.00;90.50;;;;;;5008357;28;19916;-67
2022/05/08 09:36:32;;;;;;;6.47;0.98;;;13.00;96.80;;;;;;4983230;28;20494;-67
2022/05/08 09:39:02;;;;;;;2.22;1.00;;;13.10;97.10;;;;;;5019548;28;20041;-67
2022/05/08 09:41:34;;;;;;;2.72;0.90;;;13.20;94.80;;;;;;5013362;28;20483;-67
2022/05/08 09:44:10;;;;;;;2.45;0.80;;;13.40;95.10;;;;;;5031338;28;20068;-67
2022/05/08 09:46:43;;;;;;;3.47;1.80;;;13.50;92.60;;;;;;5022547;28;20700;-67
2022/05/08 09:49:31;;;;;;;2.97;0.90;;;13.60;95.50;;;;;;5038958;28;20072;-67
2022/05/08 09:51:58;;;;;;;4.00;1.15;;;13.70;96.40;;;;;;5020405;28;20344;-67
2022/05/08 09:54:26;;;;;;;4.75;0.80;;;13.90;95.50;;;;;;5010616;28;20485;-67
2022/05/08 09:56:51;;;;;;;5.15;0.88;;;14.00;94.70;;;;;;5028474;28;20049;-67
2022/05/08 09:59:19;;;;;;;2.03;0.67;;;13.90;93.00;;;;;;5006445;28;20594;-67
2022/05/08 10:01:44;;;;;;;4.68;1.13;;;13.80;94.30;;;;;;5027107;28;20317;-67
2022/05/08 10:04:11;;;;;;;2.03;0.90;;;13.90;94.10;;;;;;5010319;28;20304;-67
2022/05/08 10:06:37;;;;;;;;;;;14.00;94.80;;;;;;5006911;28;20558;-67
2022/05/08 10:14:33;;;;;;;2.50;0.73;;;14.30;91.30;;;;;;5028570;28;20047;-66
2022/05/08 10:17:04;;;;;;;2.13;0.85;;;14.30;89.70;;;;;;5022168;28;20021;-66
2022/05/08 10:19:32;;;;;;;2.45;0.82;;;14.50;82.20;;;;;;5026435;28;20033;-66
2022/05/08 10:22:03;;;;;;;3.65;1.02;;;14.50;84.10;;;;;;5024187;28;20045;-66
2022/05/08 10:24:39;;;;;;;5.75;1.30;;;14.60;83.90;;;;;;5025486;28;20397;-66
2022/05/08 10:27:16;;;;;;;2.25;0.80;;;14.60;78.30;;;;;;5004142;28;20067;-66
2022/05/08 10:29:43;;;;;;;2.53;0.85;;;14.70;79.20;;;;;;5004011;28;20045;-66
2022/05/08 10:32:10;;;;;;;2.40;0.80;;;14.70;80.20;;;;;;5025683;28;20038;-66
2022/05/08 10:34:39;;;;;;;3.95;1.02;;;14.70;81.70;;;;;;5022515;28;20190;-66
2022/05/08 10:37:11;;;;;;;2.53;0.90;;;14.80;82.20;;;;;;5013774;28;20068;-66
2022/05/08 10:39:41;;;;;;;3.60;1.35;;;14.80;81.50;;;;;;5021894;28;20052;-66
2022/05/08 10:42:29;;;;;;;2.58;0.68;;;14.90;84.10;;;;;;5016777;28;20109;-66
2022/05/08 10:44:56;;;;;;;2.92;1.00;;;14.90;79.30;;;;;;5022965;28;20068;-66
2022/05/08 10:47:36;;;;;;;3.25;0.90;;;14.90;77.60;;;;;;5026898;28;20502;-66
2022/05/08 10:50:07;;;;;;;3.17;0.98;;;15.00;79.60;;;;;;5013053;28;20399;-66
2022/05/08 10:52:33;;;;;;;2.90;0.90;;;15.10;79.70;;;;;;5020540;28;20045;-66
2022/05/08 10:55:00;;;;;;;;;;;15.10;79.30;;;;;;5029400;28;20082;-66
2022/05/08 10:57:36;;;;;;;3.87;1.00;;;15.10;70.50;;;;;;5021790;28;19916;-66
2022/05/08 11:00:08;;;;;;;5.80;1.13;;;15.20;78.10;;;;;;5025782;28;20038;-66
2022/05/08 11:02:56;;;;;;;3.33;0.85;;;15.20;80.50;;;;;;5020654;28;20048;-66
2022/05/08 11:05:32;;;;;;;4.53;1.02;;;15.30;77.20;;;;;;5021252;28;20048;-66
2022/05/08 11:08:05;;;;;;;2.37;0.63;;;15.40;78.00;;;;;;5003596;28;20107;-66
2022/05/08 11:10:34;;;;;;;5.22;1.30;;;15.40;71.90;;;;;;5018031;28;20049;-66
2022/05/08 11:13:10;;;;;;;6.95;0.95;;;15.40;75.50;;;;;;5017501;28;20324;-66
2022/05/08 11:15:38;;;;;;;2.42;0.82;;;15.50;73.80;;;;;;4999658;28;20029;-66
2022/05/08 11:18:07;;;;;;;2.83;0.90;;;15.50;73.90;;;;;;5024856;28;20361;-66
2022/05/08 11:20:42;;;;;;;3.85;1.00;;;15.60;73.10;;;;;;5014561;28;20036;-66
2022/05/08 11:23:11;;;;;;;4.75;1.17;;;15.50;70.10;;;;;;5025607;28;20053;-66
2022/05/08 11:25:36;;;;;;;2.47;0.90;;;15.60;71.10;;;;;;5006589;28;20095;-65
2022/05/08 11:28:02;;;;;;;5.30;1.20;;;15.60;73.00;;;;;;5028254;28;20046;-65
2022/05/08 11:30:33;;;;;;;5.00;1.30;;;15.70;71.20;;;;;;5021922;28;20135;-65
2022/05/08 11:36:04;;;;;;;4.15;1.05;;;15.90;71.00;;;;;;5027543;28;20033;-66
2022/05/08 11:38:45;;;;;;;2.63;1.33;;;16.00;68.80;;;;;;5021591;28;20589;-66
2022/05/08 11:41:16;;;;;;;2.58;0.80;;;15.90;64.70;;;;;;4989434;28;20052;-66
2022/05/08 11:43:46;;;;;;;2.72;1.13;;;15.90;66.80;;;;;;5024830;28;20569;-66
2022/05/08 11:46:16;;;;;;;1.35;0.60;;;15.90;68.80;;;;;;5001983;28;20045;-66
2022/05/08 11:48:47;;;;;;;3.78;1.10;;;16.10;68.00;;;;;;4998774;28;20079;-66
2022/05/08 11:51:15;;;;;;;3.33;0.90;;;16.20;67.00;;;;;;5005307;28;20057;-66
2022/05/08 11:53:42;;;;;;;2.22;1.00;;;16.30;65.90;;;;;;5016536;28;20067;-66
2022/05/08 11:56:27;;;;;;;4.47;1.00;;;16.40;63.30;;;;;;5005771;28;20101;-66
2022/05/08 11:58:57;;;;;;;2.55;0.80;;;16.50;62.70;;;;;;5020732;28;20049;-65
2022/05/08 12:01:24;;;;;;;3.58;0.90;;;16.60;63.10;;;;;;5020770;28;20552;-66
2022/05/08 12:03:49;;;;;;;4.47;1.10;;;16.60;64.30;;;;;;5020899;28;20410;-66
2022/05/08 12:06:15;;;;;;;2.60;1.10;;;16.70;63.90;;;;;;5014603;28;20137;-66
2022/05/08 12:08:43;;;;;;;5.38;1.30;;;16.70;61.30;;;;;;5013427;28;20465;-66
2022/05/08 12:11:36;;;;;;;2.88;1.00;;;16.70;61.70;;;;;;5015386;28;20045;-66
2022/05/08 12:14:06;;;;;;;3.85;1.00;;;16.70;60.90;;;;;;5020180;28;20057;-66
2022/05/08 12:16:32;;;;;;;1.45;0.80;;;16.90;62.90;;;;;;5025212;28;20138;-66
2022/05/08 12:19:08;;;;;;;;;;;17.00;62.40;;;;;;5014304;28;20091;-66
2022/05/08 12:21:33;;;;;;;7.40;1.13;;;17.10;59.50;;;;;;5016462;28;19936;-66
2022/05/08 12:23:59;;;;;;;3.95;1.48;;;17.10;60.50;;;;;;5022382;28;20045;-66
2022/05/08 12:26:25;;;;;;;2.13;1.10;;;17.20;60.60;;;;;;5023423;28;20046;-66
2022/05/08 12:28:50;;;;;;;6.77;1.30;;;17.20;59.60;;;;;;5029769;28;20078;-66
2022/05/08 12:31:16;;;;;;;5.45;1.10;;;17.10;59.10;;;;;;5023783;28;20454;-66
2022/05/08 12:33:41;;;;;;;2.40;1.00;;;17.10;59.00;;;;;;5023453;28;20291;-66
2022/05/08 12:46:56;;;;;;;2.67;0.85;;;17.20;55.50;;;;;;5037868;22;20065;-66
2022/05/08 12:49:22;;;;;;;3.78;0.85;;;17.20;58.40;;;;;;5025545;28;20498;-66
2022/05/08 12:51:48;;;;;;;6.32;0.98;;;17.20;57.90;;;;;;5017003;28;20511;-66
2022/05/08 12:54:13;;;;;;;3.20;0.98;;;17.20;58.50;;;;;;5001073;28;20045;-66
2022/05/08 12:56:40;;;;;;;3.47;1.10;;;17.20;57.70;;;;;;5006810;28;20040;-66
2022/05/08 13:01:50;;;;;;;3.47;0.98;;;17.40;57.10;;;;;;5023106;28;20041;-66
2022/05/08 13:04:15;;;;;;;5.47;0.90;;;17.50;57.30;;;;;;5031292;28;20041;-72
2022/05/08 13:06:41;;;;;;;1.70;0.88;;;17.50;56.80;;;;;;5015545;28;20129;-66
2022/05/08 13:09:07;;;;;;;3.65;1.33;;;17.40;55.70;;;;;;5020036;28;20076;-65
2022/05/08 13:11:34;;;;;;;2.95;1.15;;;17.40;55.80;;;;;;5022268;28;20046;-66
2022/05/08 13:14:00;;;;;;;1.83;0.93;;;17.30;53.90;;;;;;5019417;28;20087;-68
2022/05/08 13:16:26;;;;;;;3.50;1.27;;;17.10;55.80;;;;;;5013645;28;20041;-67
2022/05/08 13:18:51;;;;;;;6.32;1.17;;;17.10;56.40;;;;;;5022367;28;20394;-67
2022/05/08 13:21:17;;;;;;;2.87;1.00;;;17.30;56.90;;;;;;5022314;28;20041;-68
2022/05/08 13:23:43;;;;;;;3.42;1.00;;;17.40;56.90;;;;;;5029445;28;20931;-69
2022/05/08 13:26:09;;;;;;;4.22;1.10;;;17.50;56.80;;;;;;5023393;28;20046;-65
2022/05/08 13:28:34;;;;;;;3.00;0.90;;;17.60;56.90;;;;;;5024000;28;20044;-66
2022/05/08 13:31:04;;;;;;;2.85;1.25;;;17.60;56.60;;;;;;5026374;28;20036;-68
2022/05/08 13:33:31;;;;;;;3.63;0.80;;;17.50;56.30;;;;;;5025735;28;20695;-71
2022/05/08 13:35:56;;;;;;;4.85;1.00;;;17.50;57.40;;;;;;4996313;28;20048;-65
2022/05/08 13:38:24;;;;;;;5.00;0.75;;;17.60;57.60;;;;;;5021417;28;20045;-65
2022/05/08 13:40:51;;;;;;;3.35;0.93;;;17.70;57.40;;;;;;5033405;28;20526;-66
2022/05/08 13:43:17;;;;;;;7.35;1.13;;;17.70;56.60;;;;;;5019846;28;20302;-65
2022/05/08 13:45:43;;;;;;;3.30;1.08;;;17.70;56.70;;;;;;5010022;28;20079;-66